createdAt,value
2023-05-16T00:00:59.651Z,41.35
2023-05-16T00:04:26.229Z,41.39
2023-05-16T00:07:52.937Z,41.60
2023-05-16T00:10:54.885Z,41.63
2023-05-16T00:13:30.592Z,41.75
2023-05-16T00:16:23.626Z,41.82
2023-05-16T00:19:32.999Z,41.93
2023-05-16T00:22:47.026Z,41.93
2023-05-16T00:25:29.059Z,42.15
2023-05-16T00:29:21.525Z,42.21
2023-05-16T00:32:22.544Z,42.29
2023-05-16T00:36:02.575Z,42.42
2023-05-16T00:39:50.590Z,42.51
2023-05-16T00:43:31.029Z,42.66
2023-05-16T00:47:10.089Z,42.73
2023-05-16T00:50:56.195Z,42.76
2023-05-16T00:54:44.192Z,42.80
2023-05-16T00:58:22.621Z,42.81
2023-05-16T01:02:11.744Z,42.97
2023-05-16T01:05:52.888Z,43.07
2023-05-16T01:09:30.819Z,43.32
2023-05-16T01:13:26.703Z,43.50
2023-05-16T01:16:56.053Z,43.67
2023-05-16T01:20:46.957Z,43.79
2023-05-16T01:24:13.255Z,43.98
2023-05-16T01:27:42.381Z,44.16
2023-05-16T01:31:07.513Z,44.28
2023-05-16T01:34:31.006Z,44.44
2023-05-16T01:38:28.003Z,44.54
2023-05-16T01:42:21.112Z,44.67
2023-05-16T01:46:12.164Z,44.72
2023-05-16T01:50:06.277Z,45.53
2023-05-16T01:53:48.714Z,51.24
2023-05-16T01:56:40.287Z,52.93
2023-05-16T01:59:35.429Z,52.82
2023-05-16T02:03:06.242Z,52.62
2023-05-16T02:06:45.512Z,51.49
2023-05-16T02:09:53.498Z,49.21
2023-05-16T02:13:16.877Z,47.88
2023-05-16T02:16:30.033Z,47.26
2023-05-16T02:20:08.488Z,46.90
2023-05-16T02:23:10.906Z,46.70
2023-05-16T02:26:15.806Z,46.35
2023-05-16T02:29:29.588Z,46.24
2023-05-16T02:32:50.008Z,46.52
2023-05-16T02:36:03.296Z,46.09
2023-05-16T02:39:08.755Z,45.70
2023-05-16T02:42:31.047Z,45.62
2023-05-16T02:45:55.770Z,45.34
2023-05-16T02:49:23.718Z,44.99
2023-05-16T02:53:11.738Z,44.94
2023-05-16T02:56:58.332Z,44.86
2023-05-16T03:00:19.953Z,44.74
2023-05-16T03:03:39.152Z,44.80
2023-05-16T03:07:17.557Z,44.81
2023-05-16T03:10:29.327Z,44.71
2023-05-16T03:14:01.586Z,44.71
2023-05-16T03:17:12.763Z,44.48
2023-05-16T03:20:45.881Z,44.46
2023-05-16T03:23:57.716Z,44.34
2023-05-16T03:27:35.415Z,44.31
2023-05-16T03:30:51.727Z,44.15
2023-05-16T03:34:29.605Z,43.98
2023-05-16T03:37:47.734Z,44.20
2023-05-16T03:41:37.814Z,44.22
2023-05-16T03:45:17.684Z,43.99
2023-05-16T03:48:48.547Z,43.90
2023-05-16T03:52:25.702Z,44.10
2023-05-16T03:55:14.364Z,43.87
2023-05-16T03:58:35.410Z,43.67
2023-05-16T04:01:17.440Z,43.72
2023-05-16T04:04:22.788Z,43.54
2023-05-16T04:07:47.206Z,43.52
2023-05-16T04:10:57.199Z,43.48
2023-05-16T04:14:11.924Z,43.48
2023-05-16T04:17:18.058Z,43.43
2023-05-16T04:21:08.052Z,43.52
2023-05-16T04:24:56.025Z,43.60
2023-05-16T04:28:43.990Z,43.50
2023-05-16T04:32:31.983Z,43.73
2023-05-16T04:36:20.052Z,43.79
2023-05-16T04:40:08.061Z,44.00
2023-05-16T04:43:35.089Z,44.35
2023-05-16T04:47:12.889Z,44.47
2023-05-16T04:50:27.602Z,44.51
2023-05-16T04:54:14.342Z,44.75
2023-05-16T04:57:53.342Z,44.69
2023-05-16T05:01:07.127Z,44.79
2023-05-16T05:04:04.548Z,44.87
2023-05-16T05:07:37.325Z,44.69
2023-05-16T05:11:04.358Z,44.57
2023-05-16T05:14:35.177Z,44.33
2023-05-16T05:17:57.395Z,44.20
2023-05-16T05:21:28.796Z,44.09
2023-05-16T05:24:42.000Z,44.13
2023-05-16T05:28:07.028Z,44.08
2023-05-16T05:31:12.625Z,43.60
2023-05-16T05:34:41.373Z,43.05
2023-05-16T05:38:12.394Z,42.96
2023-05-16T05:41:40.345Z,42.30
2023-05-16T05:44:50.939Z,42.10
2023-05-16T05:48:26.935Z,42.21
2023-05-16T05:52:07.574Z,42.36
2023-05-16T05:55:48.599Z,42.10
2023-05-16T05:59:28.173Z,42.04
2023-05-16T06:02:38.647Z,42.15
2023-05-16T06:05:48.108Z,43.00
2023-05-16T06:08:35.538Z,43.71
2023-05-16T06:11:54.559Z,44.04
2023-05-16T06:15:28.234Z,44.52
2023-05-16T06:19:16.661Z,45.15
2023-05-16T06:22:42.625Z,45.65
2023-05-16T06:26:12.437Z,45.32
2023-05-16T06:29:40.203Z,45.46
2023-05-16T06:33:27.220Z,45.81
2023-05-16T06:37:15.620Z,46.27
2023-05-16T06:40:43.617Z,46.59
2023-05-16T06:44:10.254Z,46.90
2023-05-16T06:47:13.847Z,47.53
2023-05-16T06:50:43.068Z,47.78
2023-05-16T06:54:31.087Z,48.06
2023-05-16T06:58:20.112Z,47.85
2023-05-16T07:02:08.099Z,47.73
2023-05-16T07:05:35.827Z,48.11
2023-05-16T07:09:13.377Z,48.11
2023-05-16T07:12:43.532Z,47.23
2023-05-16T07:16:16.837Z,47.09
2023-05-16T07:19:53.641Z,46.98
2023-05-16T07:23:14.792Z,46.62
2023-05-16T07:26:27.494Z,46.52
2023-05-16T07:30:15.902Z,46.50
2023-05-16T07:33:54.090Z,45.54
2023-05-16T07:37:13.884Z,44.70
2023-05-16T07:40:41.890Z,44.56
2023-05-16T07:44:29.988Z,43.78
2023-05-16T07:48:08.489Z,42.99
2023-05-16T07:51:45.419Z,43.49
2023-05-16T07:55:33.414Z,43.77
2023-05-16T07:59:10.623Z,43.27
2023-05-16T08:02:41.043Z,42.62
2023-05-16T08:06:21.052Z,42.36
2023-05-16T08:10:02.212Z,42.87
2023-05-16T08:13:39.141Z,42.50
2023-05-16T08:17:07.424Z,42.56
2023-05-16T08:20:36.560Z,42.77
2023-05-16T08:24:13.405Z,43.09
2023-05-16T08:28:01.378Z,43.43
2023-05-16T08:31:39.262Z,43.76
2023-05-16T08:35:19.401Z,44.50
2023-05-16T08:39:00.410Z,44.67
2023-05-16T08:42:48.728Z,44.53
2023-05-16T08:46:26.182Z,44.92
2023-05-16T08:50:04.297Z,45.52
2023-05-16T08:53:50.055Z,46.31
2023-05-16T08:57:30.705Z,46.67
2023-05-16T09:01:01.411Z,47.02
2023-05-16T09:04:31.759Z,47.50
2023-05-16T09:08:08.925Z,48.08
2023-05-16T09:11:50.247Z,48.36
2023-05-16T09:15:22.358Z,48.95
2023-05-16T09:19:00.218Z,48.83
2023-05-16T09:22:54.580Z,48.76
2023-05-16T09:26:32.153Z,48.51
2023-05-16T09:30:44.168Z,48.28
2023-05-16T09:34:23.500Z,47.90
2023-05-16T09:38:00.710Z,47.48
2023-05-16T09:41:37.782Z,46.81
2023-05-16T09:45:34.425Z,45.90
2023-05-16T09:49:04.641Z,45.56
2023-05-16T09:52:42.646Z,44.69
2023-05-16T09:56:25.425Z,44.65
2023-05-16T10:00:10.234Z,44.92
2023-05-16T10:04:00.318Z,44.60
2023-05-16T10:07:42.059Z,44.70
2023-05-16T10:11:10.189Z,44.72
2023-05-16T10:14:55.947Z,44.84
2023-05-16T10:18:39.647Z,44.59
2023-05-16T10:22:21.432Z,44.79
2023-05-16T10:26:24.674Z,45.00
2023-05-16T10:30:05.903Z,44.63
2023-05-16T10:33:40.882Z,44.70
2023-05-16T10:37:14.412Z,45.51
2023-05-16T10:40:27.281Z,45.18
2023-05-16T10:44:09.176Z,44.67
2023-05-16T10:47:28.370Z,43.30
2023-05-16T10:51:02.985Z,42.87
2023-05-16T10:54:51.855Z,41.69
2023-05-16T10:58:39.951Z,41.66
2023-05-16T11:02:25.102Z,41.09
2023-05-16T11:09:42.074Z,40.51
2023-05-16T11:12:57.176Z,40.54
2023-05-16T11:16:37.955Z,40.46
2023-05-16T11:20:09.215Z,40.32
2023-05-16T11:23:06.448Z,40.52
2023-05-16T11:26:30.738Z,40.83
2023-05-16T11:29:43.147Z,40.96
2023-05-16T11:33:17.222Z,40.24
2023-05-16T11:36:50.407Z,40.00
2023-05-16T11:40:09.206Z,39.82
2023-05-16T11:43:37.099Z,38.79
2023-05-16T11:47:02.734Z,39.29
2023-05-16T11:50:41.785Z,39.31
2023-05-16T11:54:01.984Z,39.41
2023-05-16T11:57:22.907Z,39.54
2023-05-16T12:00:35.383Z,39.48
2023-05-16T12:03:39.720Z,38.98
2023-05-16T12:06:29.963Z,39.25
2023-05-16T12:09:37.757Z,39.63
2023-05-16T12:13:01.944Z,39.52
2023-05-16T12:15:53.015Z,39.40
2023-05-16T12:19:13.607Z,39.75
2023-05-16T12:22:58.839Z,40.00
2023-05-16T12:25:47.942Z,39.57
2023-05-16T12:29:27.185Z,39.52
2023-05-16T12:33:17.131Z,39.84
2023-05-16T12:36:39.026Z,40.31
2023-05-16T12:39:57.193Z,40.74
2023-05-16T12:43:36.572Z,40.72
2023-05-16T12:46:51.376Z,40.69
2023-05-16T12:50:37.979Z,40.86
2023-05-16T12:54:10.096Z,40.94
2023-05-16T12:57:11.432Z,41.06
2023-05-16T13:00:37.495Z,41.19
2023-05-16T13:03:49.614Z,41.21
2023-05-16T13:07:17.865Z,41.31
2023-05-16T13:10:46.638Z,40.75
2023-05-16T13:15:24.183Z,40.95
2023-05-16T13:18:37.102Z,40.73
2023-05-16T13:22:33.404Z,40.93
2023-05-16T13:26:33.808Z,41.00
2023-05-16T13:30:22.011Z,41.06
2023-05-16T13:34:12.186Z,41.45
2023-05-16T13:37:48.790Z,41.26
2023-05-16T13:41:27.819Z,41.16
2023-05-16T13:45:26.536Z,41.41
2023-05-16T13:48:33.532Z,41.73
2023-05-16T13:52:01.961Z,41.61
2023-05-16T13:55:42.717Z,41.75
2023-05-16T13:59:01.152Z,41.88
2023-05-16T14:02:33.645Z,42.15
2023-05-16T14:06:01.652Z,42.29
2023-05-16T14:09:35.510Z,42.37
2023-05-16T14:12:53.172Z,42.43
2023-05-16T14:16:42.066Z,42.69
2023-05-16T14:20:09.683Z,42.70
2023-05-16T14:23:57.936Z,42.65
2023-05-16T14:27:33.021Z,42.47
2023-05-16T14:30:57.663Z,42.34
2023-05-16T14:34:25.643Z,42.47
2023-05-16T14:38:03.108Z,42.03
2023-05-16T14:41:13.379Z,41.89
2023-05-16T14:44:38.144Z,41.97
2023-05-16T14:48:01.956Z,41.85
2023-05-16T14:51:27.131Z,41.83
2023-05-16T14:54:38.304Z,42.11
2023-05-16T14:58:00.443Z,42.33
2023-05-16T15:01:16.386Z,42.13
2023-05-16T15:04:47.351Z,42.02
2023-05-16T15:08:25.619Z,41.93
2023-05-16T15:11:34.527Z,42.00
2023-05-16T15:14:58.408Z,42.01
2023-05-16T15:18:29.884Z,42.01
2023-05-16T15:22:09.066Z,41.93
2023-05-16T15:25:57.257Z,42.23
2023-05-16T15:29:44.299Z,41.96
2023-05-16T15:33:05.772Z,42.03
2023-05-16T15:36:31.000Z,41.99
2023-05-16T15:40:22.301Z,41.78
2023-05-16T15:44:07.422Z,41.85
2023-05-16T15:47:26.271Z,41.70
2023-05-16T15:51:03.965Z,41.59
2023-05-16T15:54:34.276Z,41.58
2023-05-16T15:58:05.288Z,41.59
2023-05-16T16:01:44.033Z,41.91
2023-05-16T16:04:54.314Z,42.14
2023-05-16T16:08:36.308Z,42.15
2023-05-16T16:11:46.668Z,42.20
2023-05-16T16:15:31.054Z,42.33
2023-05-16T16:19:07.316Z,42.39
2023-05-16T16:22:48.130Z,42.45
2023-05-16T16:26:08.918Z,42.50
2023-05-16T16:29:47.727Z,42.59
2023-05-16T16:32:49.004Z,42.72
2023-05-16T16:36:19.858Z,42.71
2023-05-16T16:39:50.929Z,42.81
2023-05-16T16:43:27.091Z,42.68
2023-05-16T16:46:56.252Z,42.75
2023-05-16T16:50:24.162Z,42.89
2023-05-16T16:53:44.253Z,43.02
2023-05-16T16:57:03.430Z,42.99
2023-05-16T17:00:51.967Z,42.94
2023-05-16T17:04:26.944Z,43.07
2023-05-16T17:07:59.249Z,43.07
2023-05-16T17:11:28.399Z,43.12
2023-05-16T17:14:54.335Z,43.11
2023-05-16T17:18:29.112Z,43.18
2023-05-16T17:21:59.269Z,43.28
2023-05-16T17:25:08.088Z,43.51
2023-05-16T17:28:48.349Z,43.50
2023-05-16T17:32:36.537Z,43.55
2023-05-16T17:36:14.656Z,43.79
2023-05-16T17:39:54.379Z,43.97
2023-05-16T17:43:42.276Z,44.01
2023-05-16T17:47:26.182Z,44.23
2023-05-16T17:50:43.849Z,44.36
2023-05-16T17:53:51.891Z,44.59
2023-05-16T17:57:06.240Z,44.58
2023-05-16T18:00:54.504Z,44.66
2023-05-16T18:04:26.550Z,44.64
2023-05-16T18:07:38.063Z,44.81
2023-05-16T18:10:54.298Z,44.91
2023-05-16T18:14:45.117Z,44.86
2023-05-16T18:18:40.251Z,45.10
2023-05-16T18:22:31.976Z,45.30
2023-05-16T18:26:20.391Z,45.51
2023-05-16T18:30:08.184Z,45.68
2023-05-16T18:33:56.727Z,46.05
2023-05-16T18:37:25.348Z,46.34
2023-05-16T18:41:14.103Z,46.56
2023-05-16T18:44:31.447Z,47.04
2023-05-16T18:47:59.167Z,47.33
2023-05-16T18:51:27.358Z,47.55
2023-05-16T18:54:38.574Z,47.78
2023-05-16T18:57:50.231Z,47.92
2023-05-16T19:01:21.017Z,48.14
2023-05-16T19:04:35.276Z,48.43
2023-05-16T19:07:57.852Z,48.46
2023-05-16T19:11:19.037Z,48.63
2023-05-16T19:14:50.484Z,48.81
2023-05-16T19:18:39.488Z,49.03
2023-05-16T19:22:09.766Z,49.06
2023-05-16T19:25:49.597Z,49.14
2023-05-16T19:29:41.730Z,49.07
2023-05-16T19:32:56.493Z,48.79
2023-05-16T19:36:19.269Z,48.72
2023-05-16T19:40:07.427Z,48.72
2023-05-16T19:43:41.677Z,48.84
2023-05-16T19:46:47.730Z,48.91
2023-05-16T19:50:15.963Z,49.13
2023-05-16T19:53:10.084Z,49.16
2023-05-16T19:55:38.302Z,49.33
2023-05-16T19:58:49.556Z,49.47
2023-05-16T20:02:21.170Z,49.82
2023-05-16T20:06:08.251Z,49.96
2023-05-16T20:09:22.525Z,50.04
2023-05-16T20:12:49.881Z,50.22
2023-05-16T20:16:05.683Z,50.44
2023-05-16T20:19:36.590Z,50.54
2023-05-16T20:23:06.024Z,50.56
2023-05-16T20:26:39.596Z,50.89
2023-05-16T20:30:07.017Z,50.88
2023-05-16T20:33:49.207Z,50.97
2023-05-16T20:37:31.673Z,51.14
2023-05-16T20:41:12.548Z,51.31
2023-05-16T20:45:01.006Z,51.71
2023-05-16T20:48:13.463Z,52.05
2023-05-16T20:51:41.684Z,52.12
2023-05-16T20:55:26.760Z,52.21
2023-05-16T20:58:55.004Z,52.19
2023-05-16T21:02:06.214Z,52.23
2023-05-16T21:05:41.230Z,52.21
2023-05-16T21:09:06.308Z,52.33
2023-05-16T21:12:02.684Z,52.26
2023-05-16T21:15:06.159Z,52.30
2023-05-16T21:17:52.177Z,52.36
2023-05-16T21:20:50.238Z,52.47
2023-05-16T21:24:18.500Z,52.44
2023-05-16T21:27:25.902Z,52.49
2023-05-16T21:31:15.542Z,52.69
2023-05-16T21:33:56.493Z,52.78
2023-05-16T21:37:01.563Z,52.79
2023-05-16T21:39:42.774Z,53.06
2023-05-16T21:43:14.240Z,53.13
2023-05-16T21:46:35.372Z,53.13
2023-05-16T21:50:03.329Z,53.15
2023-05-16T21:53:08.673Z,53.08
2023-05-16T21:56:32.522Z,53.27
2023-05-16T21:59:53.767Z,53.57
2023-05-16T22:03:21.055Z,53.57
2023-05-16T22:05:54.410Z,54.09
2023-05-16T22:08:23.963Z,54.67
2023-05-16T22:11:11.736Z,54.99
2023-05-16T22:13:47.426Z,55.31
2023-05-16T22:16:58.239Z,55.50
2023-05-16T22:20:09.093Z,56.16
2023-05-16T22:23:31.290Z,56.58
2023-05-16T22:26:23.474Z,57.13
2023-05-16T22:29:35.177Z,57.41
2023-05-16T22:32:43.207Z,57.76
2023-05-16T22:36:06.742Z,58.03
2023-05-16T22:39:15.157Z,58.33
2023-05-16T22:43:03.246Z,58.84
2023-05-16T22:46:51.337Z,59.41
2023-05-16T22:50:40.875Z,60.03
2023-05-16T22:54:28.855Z,60.40
2023-05-16T22:58:16.838Z,60.90
2023-05-16T23:01:53.870Z,61.23
2023-05-16T23:05:24.424Z,61.62
2023-05-16T23:08:46.989Z,61.60
2023-05-16T23:12:21.483Z,61.74
2023-05-16T23:15:59.703Z,61.98
2023-05-16T23:19:30.836Z,62.37
2023-05-16T23:23:11.572Z,62.37
2023-05-16T23:26:27.802Z,62.47
2023-05-16T23:30:05.671Z,62.75
2023-05-16T23:33:26.379Z,63.04
2023-05-16T23:36:46.115Z,63.04
2023-05-16T23:39:58.632Z,62.02
2023-05-16T23:43:06.673Z,60.84
2023-05-16T23:46:17.576Z,59.77
2023-05-16T23:49:44.730Z,58.78
2023-05-16T23:53:02.705Z,58.12
2023-05-16T23:56:50.882Z,57.35
